createdAt,value
2022-12-04T00:00:11.569Z,537.5
2022-12-04T00:01:17.980Z,542.5
2022-12-04T00:02:24.474Z,538.3
2022-12-04T00:03:30.824Z,536.9
2022-12-04T00:04:37.271Z,546.7
2022-12-04T00:05:43.679Z,538.3
2022-12-04T00:06:50.191Z,538.9
2022-12-04T00:07:56.537Z,533.2
2022-12-04T00:09:03.035Z,538
2022-12-04T00:10:09.381Z,551.4
2022-12-04T00:11:15.802Z,543.4
2022-12-04T00:12:22.346Z,532.4
2022-12-04T00:13:28.713Z,539.5
2022-12-04T00:14:35.128Z,536.9
2022-12-04T00:15:41.499Z,550.4
2022-12-04T00:16:47.958Z,540.6
2022-12-04T00:17:54.493Z,542.3
2022-12-04T00:19:01.151Z,544.2
2022-12-04T00:20:07.579Z,556.1
2022-12-04T00:21:14.134Z,542.6
2022-12-04T00:22:20.713Z,547.9
2022-12-04T00:23:27.201Z,552
2022-12-04T00:24:33.807Z,550.6
2022-12-04T00:25:40.331Z,547
2022-12-04T00:26:46.886Z,536.2
2022-12-04T00:27:53.378Z,553
2022-12-04T00:28:59.913Z,539.9
2022-12-04T00:30:06.451Z,543.1
2022-12-04T00:31:12.990Z,539.9
2022-12-04T00:32:19.872Z,542.7
2022-12-04T00:33:26.687Z,540.3
2022-12-04T00:34:33.430Z,543.3
2022-12-04T00:35:40.105Z,548.4
2022-12-04T00:36:46.925Z,549
2022-12-04T00:37:53.662Z,550.4
2022-12-04T00:39:00.498Z,551.6
2022-12-04T00:40:07.236Z,537.1
2022-12-04T00:41:14.048Z,542.2
2022-12-04T00:42:20.783Z,546.1
2022-12-04T00:43:27.548Z,546.7
2022-12-04T00:44:34.330Z,544.3
2022-12-04T00:45:41.125Z,551.8
2022-12-04T00:48:21.566Z,553.2
2022-12-04T00:49:59.513Z,545.7
2022-12-04T00:51:05.916Z,546.3
2022-12-04T00:52:12.452Z,548
2022-12-04T00:53:19.022Z,537
2022-12-04T00:54:25.545Z,549.3
2022-12-04T00:55:32.077Z,540
2022-12-04T00:56:38.621Z,548.6
2022-12-04T00:57:45.232Z,547.3
2022-12-04T00:58:51.707Z,547.8
2022-12-04T00:59:58.246Z,541.9
2022-12-04T01:01:04.797Z,551.9
2022-12-04T01:02:11.405Z,552
2022-12-04T01:03:17.879Z,547.1
2022-12-04T01:04:24.450Z,548.7
2022-12-04T01:05:30.961Z,555.8
2022-12-04T01:06:37.517Z,556.3
2022-12-04T01:07:44.085Z,550.7
2022-12-04T01:08:50.583Z,549.3
2022-12-04T01:09:57.209Z,546.9
2022-12-04T01:11:03.663Z,550.1
2022-12-04T01:12:10.218Z,545.1
2022-12-04T01:13:16.753Z,552.5
2022-12-04T01:14:23.302Z,545.7
2022-12-04T01:15:29.842Z,542
2022-12-04T01:16:36.391Z,553.1
2022-12-04T01:17:43.168Z,547.1
2022-12-04T01:18:49.950Z,548.6
2022-12-04T01:19:56.782Z,540.3
2022-12-04T01:21:03.544Z,540.9
2022-12-04T01:22:10.270Z,552.6
2022-12-04T01:23:17.055Z,547.6
2022-12-04T01:24:23.825Z,544.6
2022-12-04T01:25:30.614Z,543.7
2022-12-04T01:26:37.470Z,552.8
2022-12-04T01:27:44.145Z,549
2022-12-04T01:28:50.957Z,544.4
2022-12-04T01:29:57.715Z,557.1
2022-12-04T01:31:04.529Z,542.5
2022-12-04T01:32:11.806Z,548.3
2022-12-04T01:33:49.819Z,543.9
2022-12-04T01:34:56.310Z,547.1
2022-12-04T01:36:02.971Z,537.9
2022-12-04T01:37:09.379Z,543
2022-12-04T01:38:15.937Z,541.4
2022-12-04T01:39:22.525Z,544.3
2022-12-04T01:40:29.003Z,537.7
2022-12-04T01:41:35.552Z,545.6
2022-12-04T01:42:42.098Z,551
2022-12-04T01:43:48.650Z,546.7
2022-12-04T01:44:55.176Z,538.4
2022-12-04T01:46:01.727Z,542.6
2022-12-04T01:47:08.293Z,552.6
2022-12-04T01:48:14.801Z,533.7
2022-12-04T01:49:21.342Z,546.4
2022-12-04T01:50:27.919Z,552.2
2022-12-04T01:51:34.437Z,543.4
2022-12-04T01:52:40.975Z,548.6
2022-12-04T01:53:47.518Z,550.5
2022-12-04T01:54:54.099Z,538.1
2022-12-04T01:56:00.612Z,541.9
2022-12-04T01:57:07.146Z,547.4
2022-12-04T01:58:13.686Z,543.5
2022-12-04T01:59:20.320Z,540.6
2022-12-04T02:00:26.785Z,543.2
2022-12-04T02:01:33.554Z,542.6
2022-12-04T02:02:40.367Z,549.5
2022-12-04T02:03:47.118Z,542.3
2022-12-04T02:04:53.894Z,530.9
2022-12-04T02:06:00.663Z,541.7
2022-12-04T02:07:07.490Z,544.7
2022-12-04T02:08:14.229Z,544.8
2022-12-04T02:09:21.051Z,543.3
2022-12-04T02:10:27.782Z,549.7
2022-12-04T02:11:34.630Z,541.5
2022-12-04T02:12:41.337Z,544.7
2022-12-04T02:13:48.121Z,541
2022-12-04T02:14:54.967Z,547.2
2022-12-04T02:18:13.101Z,537.7
2022-12-04T02:19:47.845Z,551.9
2022-12-04T02:20:54.422Z,544.5
2022-12-04T02:22:00.928Z,546.5
2022-12-04T02:23:07.474Z,549.2
2022-12-04T02:24:14.081Z,551.7
2022-12-04T02:25:20.563Z,542.4
2022-12-04T02:26:27.103Z,541.6
2022-12-04T02:27:33.655Z,546
2022-12-04T02:28:40.190Z,543.3
2022-12-04T02:29:46.736Z,531.2
2022-12-04T02:30:53.286Z,532.6
2022-12-04T02:31:59.821Z,529.4
2022-12-04T02:33:06.406Z,549.6
2022-12-04T02:34:12.913Z,539.7
2022-12-04T02:35:19.475Z,539.1
2022-12-04T02:36:26.072Z,534.1
2022-12-04T02:37:32.707Z,535.7
2022-12-04T02:38:39.085Z,538.8
2022-12-04T02:39:45.656Z,541.5
2022-12-04T02:40:52.208Z,539.4
2022-12-04T02:41:58.710Z,538.5
2022-12-04T02:43:05.258Z,540.1
2022-12-04T02:44:11.869Z,541.9
2022-12-04T02:45:18.351Z,539.5
2022-12-04T02:46:24.927Z,542.8
2022-12-04T02:47:31.675Z,532.1
2022-12-04T02:48:38.452Z,535.1
2022-12-04T02:49:45.300Z,544.9
2022-12-04T02:50:52.000Z,547.6
2022-12-04T02:51:58.803Z,541.1
2022-12-04T02:53:05.575Z,538
2022-12-04T02:54:12.343Z,534.2
2022-12-04T02:55:19.190Z,547
2022-12-04T02:56:25.974Z,540.4
2022-12-04T02:57:32.690Z,528
2022-12-04T02:58:39.478Z,532.2
2022-12-04T02:59:46.231Z,534.2
2022-12-04T03:00:53.059Z,535.9
2022-12-04T03:02:00.301Z,537.3
2022-12-04T03:03:38.543Z,534.5
2022-12-04T03:04:45.354Z,534.1
2022-12-04T03:05:52.065Z,538.2
2022-12-04T03:06:58.843Z,536.7
2022-12-04T03:08:05.622Z,544.1
2022-12-04T03:09:12.453Z,532.6
2022-12-04T03:10:19.175Z,545.3
2022-12-04T03:11:25.968Z,541.3
2022-12-04T03:12:32.730Z,549.2
2022-12-04T03:13:39.513Z,549.3
2022-12-04T03:14:46.287Z,547.5
2022-12-04T03:15:53.114Z,545.9
2022-12-04T03:16:59.890Z,536.9
2022-12-04T03:18:06.626Z,528.7
2022-12-04T03:19:13.460Z,531.6
2022-12-04T03:20:20.219Z,540.2
2022-12-04T03:21:27.044Z,541
2022-12-04T03:22:33.812Z,540
2022-12-04T03:23:40.537Z,539
2022-12-04T03:24:47.314Z,539.3
2022-12-04T03:25:54.096Z,540
2022-12-04T03:27:00.856Z,543.8
2022-12-04T03:28:07.650Z,542.6
2022-12-04T03:29:14.427Z,550.6
2022-12-04T03:30:21.294Z,540
2022-12-04T03:32:33.491Z,538.4
2022-12-04T03:34:12.090Z,537
2022-12-04T03:35:18.171Z,542.6
2022-12-04T03:36:24.616Z,536.1
2022-12-04T03:37:30.924Z,535.8
2022-12-04T03:38:37.359Z,542.8
2022-12-04T03:39:43.812Z,541
2022-12-04T03:40:50.301Z,538.5
2022-12-04T03:41:56.721Z,544.4
2022-12-04T03:43:03.130Z,535.1
2022-12-04T03:44:09.485Z,532.4
2022-12-04T03:45:15.906Z,541.7
2022-12-04T03:46:22.358Z,537
2022-12-04T03:47:28.762Z,545.6
2022-12-04T03:48:35.187Z,541.7
2022-12-04T03:49:41.615Z,551.1
2022-12-04T03:50:48.061Z,546.2
2022-12-04T03:51:54.469Z,538.3
2022-12-04T03:53:00.902Z,538.7
2022-12-04T03:54:07.331Z,535.9
2022-12-04T03:55:13.748Z,548.4
2022-12-04T03:56:20.244Z,538.7
2022-12-04T03:57:26.651Z,537.3
2022-12-04T03:58:33.047Z,537.4
2022-12-04T03:59:39.456Z,546.9
2022-12-04T04:00:45.879Z,547.1
2022-12-04T04:01:52.360Z,547.4
2022-12-04T04:02:58.915Z,539.9
2022-12-04T04:04:05.419Z,544.4
2022-12-04T04:05:12.003Z,547.5
2022-12-04T04:06:18.529Z,531.3
2022-12-04T04:07:25.107Z,539.1
2022-12-04T04:08:31.682Z,532.8
2022-12-04T04:09:38.121Z,536.8
2022-12-04T04:10:44.675Z,543.6
2022-12-04T04:11:51.215Z,533.6
2022-12-04T04:12:57.780Z,542.9
2022-12-04T04:14:04.303Z,535.3
2022-12-04T04:15:10.910Z,542.1
2022-12-04T04:16:17.386Z,534.4
2022-12-04T04:17:50.115Z,539.6
2022-12-04T04:18:56.960Z,555.5
2022-12-04T04:20:03.663Z,544.5
2022-12-04T04:21:10.440Z,541.5
2022-12-04T04:22:17.265Z,538.8
2022-12-04T04:23:24.001Z,534.6
2022-12-04T04:24:30.782Z,544.2
2022-12-04T04:25:37.557Z,547.7
2022-12-04T04:26:44.456Z,538.4
2022-12-04T04:27:51.127Z,539.1
2022-12-04T04:28:58.016Z,544.2
2022-12-04T04:30:04.666Z,541.4
2022-12-04T04:31:11.455Z,536.5
2022-12-04T04:34:29.796Z,543.1
2022-12-04T04:36:08.421Z,539.6
2022-12-04T04:37:46.154Z,543.2
2022-12-04T04:38:52.576Z,544.6
2022-12-04T04:39:59.001Z,549.6
2022-12-04T04:41:05.477Z,546.9
2022-12-04T04:42:11.854Z,535.5
2022-12-04T04:43:18.356Z,539.2
2022-12-04T04:44:24.708Z,541.9
2022-12-04T04:45:31.145Z,541.5
2022-12-04T04:46:37.553Z,543.1
2022-12-04T04:47:43.991Z,530
2022-12-04T04:48:50.483Z,537
2022-12-04T04:49:56.890Z,542.5
2022-12-04T04:51:03.291Z,552.3
2022-12-04T04:52:09.689Z,535.1
2022-12-04T04:53:16.108Z,539.1
2022-12-04T04:54:22.534Z,552.9
2022-12-04T04:55:29.049Z,537.5
2022-12-04T04:56:35.388Z,538.8
2022-12-04T04:57:41.840Z,535.4
2022-12-04T04:58:48.428Z,546.3
2022-12-04T04:59:54.734Z,549.8
2022-12-04T05:01:01.169Z,534.5
2022-12-04T05:02:07.524Z,537.3
2022-12-04T05:03:13.962Z,543.1
2022-12-04T05:04:20.456Z,530.2
2022-12-04T05:05:27.077Z,542.5
2022-12-04T05:06:33.550Z,543.3
2022-12-04T05:07:40.025Z,540.7
2022-12-04T05:08:46.565Z,546.2
2022-12-04T05:09:53.093Z,542.9
2022-12-04T05:10:59.760Z,547.2
2022-12-04T05:12:06.211Z,538.7
2022-12-04T05:13:12.737Z,538.3
2022-12-04T05:14:19.285Z,536.9
2022-12-04T05:15:25.867Z,540.1
2022-12-04T05:16:32.401Z,540.3
2022-12-04T05:17:38.915Z,545.3
2022-12-04T05:18:45.463Z,531.8
2022-12-04T05:20:34.795Z,543.1
2022-12-04T05:21:41.621Z,533.7
2022-12-04T05:22:48.461Z,534.4
2022-12-04T05:23:55.128Z,540.5
2022-12-04T05:25:01.928Z,537.8
2022-12-04T05:26:08.821Z,534.8
2022-12-04T05:27:15.476Z,538.2
2022-12-04T05:28:22.300Z,537.5
2022-12-04T05:29:29.120Z,529.8
2022-12-04T05:30:35.795Z,536.2
2022-12-04T05:31:42.580Z,534.8
2022-12-04T05:32:49.358Z,540.1
2022-12-04T05:33:56.137Z,549.1
2022-12-04T05:37:14.291Z,541.2
2022-12-04T05:38:52.352Z,529.2
2022-12-04T05:39:58.801Z,531.7
2022-12-04T05:41:05.347Z,535
2022-12-04T05:42:11.963Z,534.7
2022-12-04T05:43:18.517Z,544.6
2022-12-04T05:44:24.988Z,538.2
2022-12-04T05:45:31.526Z,540.2
2022-12-04T05:46:38.074Z,543.3
2022-12-04T05:47:44.619Z,542.9
2022-12-04T05:48:51.283Z,542.9
2022-12-04T05:49:57.725Z,536.3
2022-12-04T05:51:04.253Z,546.4
2022-12-04T05:52:10.913Z,540.7
2022-12-04T05:53:17.464Z,543.9
2022-12-04T05:54:23.882Z,538.6
2022-12-04T05:55:30.429Z,544
2022-12-04T05:56:36.962Z,535.4
2022-12-04T05:57:43.517Z,542.1
2022-12-04T05:58:50.065Z,541.5
2022-12-04T05:59:56.674Z,547.5
2022-12-04T06:01:03.158Z,536.1
2022-12-04T06:02:09.694Z,532.9
2022-12-04T06:03:16.233Z,541.8
2022-12-04T06:04:22.855Z,540.4
2022-12-04T06:05:29.329Z,539.9
2022-12-04T06:06:36.197Z,535.8
2022-12-04T06:07:42.883Z,540.1
2022-12-04T06:08:49.662Z,544.6
2022-12-04T06:09:56.446Z,533.8
2022-12-04T06:11:03.291Z,531.1
2022-12-04T06:12:10.003Z,532.8
2022-12-04T06:13:16.775Z,542
2022-12-04T06:14:23.620Z,543.1
2022-12-04T06:15:30.332Z,534.2
2022-12-04T06:16:37.115Z,539.1
2022-12-04T06:17:43.953Z,538.8
2022-12-04T06:18:50.668Z,541.4
2022-12-04T06:19:57.516Z,533.7
2022-12-04T06:23:15.600Z,541.8
2022-12-04T06:24:53.690Z,534.1
2022-12-04T06:26:00.170Z,533.6
2022-12-04T06:27:06.778Z,537.1
2022-12-04T06:28:13.208Z,537.4
2022-12-04T06:29:19.809Z,539.7
2022-12-04T06:30:26.337Z,538.1
2022-12-04T06:31:32.844Z,534.8
2022-12-04T06:32:39.432Z,542.8
2022-12-04T06:33:45.942Z,534.9
2022-12-04T06:34:52.486Z,537.7
2022-12-04T06:35:59.006Z,539
2022-12-04T06:37:05.557Z,543.7
2022-12-04T06:38:12.102Z,536
2022-12-04T06:39:18.639Z,544.8
2022-12-04T06:40:25.191Z,537.9
2022-12-04T06:41:31.798Z,541.8
2022-12-04T06:42:38.289Z,540.4
2022-12-04T06:43:44.896Z,534.2
2022-12-04T06:44:51.371Z,545.7
2022-12-04T06:45:57.918Z,547.4
2022-12-04T06:47:04.473Z,530.3
2022-12-04T06:48:11.082Z,543.3
2022-12-04T06:49:17.572Z,539.6
2022-12-04T06:50:24.176Z,534.5
2022-12-04T06:51:30.721Z,536.3
2022-12-04T06:52:37.516Z,537.4
2022-12-04T06:53:44.197Z,539.4
2022-12-04T06:54:50.975Z,540.9
2022-12-04T06:55:57.763Z,540.3
2022-12-04T06:57:04.561Z,537
2022-12-04T06:58:11.288Z,541.7
2022-12-04T06:59:18.031Z,529.4
2022-12-04T07:00:24.771Z,542.3
2022-12-04T07:01:31.707Z,539.3
2022-12-04T07:02:38.298Z,526.7
2022-12-04T07:03:44.978Z,541
2022-12-04T07:04:51.747Z,536.2
2022-12-04T07:05:58.465Z,533.4
2022-12-04T07:09:16.613Z,540.4
2022-12-04T07:10:55.315Z,534.5
2022-12-04T07:12:02.517Z,530.3
2022-12-04T07:13:09.730Z,548.3
2022-12-04T07:14:48.578Z,536.5
2022-12-04T07:16:27.198Z,540.1
2022-12-04T07:18:05.828Z,539.4
2022-12-04T07:19:44.615Z,537.3
2022-12-04T07:21:23.265Z,524.5
2022-12-04T07:23:02.009Z,528.6
2022-12-04T07:24:40.731Z,533.9
2022-12-04T07:26:19.405Z,540.3
2022-12-04T07:27:58.137Z,535.9
2022-12-04T07:29:37.919Z,528.7
2022-12-04T07:32:53.473Z,535.7
2022-12-04T07:33:59.887Z,525.7
2022-12-04T07:35:06.278Z,534.2
2022-12-04T07:36:12.666Z,536.4
2022-12-04T07:37:19.183Z,536.2
2022-12-04T07:38:25.505Z,536.5
2022-12-04T07:39:31.829Z,530.8
2022-12-04T07:40:38.216Z,539
2022-12-04T07:41:44.735Z,547.5
2022-12-04T07:42:51.018Z,543.3
2022-12-04T07:43:57.501Z,535.9
2022-12-04T07:45:03.833Z,539.8
2022-12-04T07:46:10.189Z,529.6
2022-12-04T07:47:16.666Z,535.3
2022-12-04T07:48:23.159Z,523.1
2022-12-04T07:49:29.401Z,531.5
2022-12-04T07:50:35.781Z,539.5
2022-12-04T07:51:42.167Z,526.2
2022-12-04T07:52:48.544Z,530.4
2022-12-04T07:53:54.894Z,528.9
2022-12-04T07:55:01.274Z,530.9
2022-12-04T07:56:07.705Z,532.8
2022-12-04T07:57:14.115Z,531.5
2022-12-04T07:58:20.438Z,534.1
2022-12-04T07:59:26.836Z,536.3
2022-12-04T08:00:33.338Z,542
2022-12-04T08:01:39.920Z,531.7
2022-12-04T08:02:46.410Z,533
2022-12-04T08:03:53.017Z,525
2022-12-04T08:04:59.534Z,518.7
2022-12-04T08:06:05.880Z,528.6
2022-12-04T08:07:12.479Z,522.5
2022-12-04T08:08:18.910Z,528.2
2022-12-04T08:09:25.446Z,520
2022-12-04T08:10:31.950Z,532
2022-12-04T08:11:38.523Z,524.3
2022-12-04T08:12:44.917Z,537.5
2022-12-04T08:13:51.491Z,524.8
2022-12-04T08:15:40.713Z,535
2022-12-04T08:16:47.553Z,521
2022-12-04T08:17:54.266Z,523.8
2022-12-04T08:19:00.941Z,529.3
2022-12-04T08:20:07.735Z,522.7
2022-12-04T08:21:14.472Z,520.4
2022-12-04T08:22:21.258Z,525.8
2022-12-04T08:23:28.026Z,521.2
2022-12-04T08:24:34.831Z,519
2022-12-04T08:25:41.660Z,527.9
2022-12-04T08:26:48.466Z,523.2
2022-12-04T08:27:55.205Z,520.5
2022-12-04T08:29:02.173Z,527.3
2022-12-04T08:32:20.183Z,530.7
2022-12-04T08:33:58.948Z,526.7
2022-12-04T08:35:06.155Z,528.3
2022-12-04T08:36:13.375Z,528.6
2022-12-04T08:37:52.023Z,516.2
2022-12-04T08:39:30.742Z,522.6
2022-12-04T08:41:09.444Z,519.9
2022-12-04T08:42:48.148Z,531.3
2022-12-04T08:44:26.944Z,528.7
2022-12-04T08:46:05.566Z,525.8
2022-12-04T08:47:44.319Z,529.2
2022-12-04T08:49:23.053Z,529.6
2022-12-04T08:51:01.752Z,527.2
2022-12-04T08:52:41.400Z,522.3
2022-12-04T08:55:57.013Z,510.1
2022-12-04T08:57:03.470Z,529.4
2022-12-04T08:58:09.770Z,526.4
2022-12-04T08:59:16.217Z,520.3
2022-12-04T09:00:22.718Z,530.8
2022-12-04T09:01:29.154Z,533.4
2022-12-04T09:02:35.519Z,523.3
2022-12-04T09:03:41.916Z,518.2
2022-12-04T09:04:48.342Z,524.4
2022-12-04T09:05:54.716Z,523.3
2022-12-04T09:07:01.216Z,522.2
2022-12-04T09:08:07.594Z,517
2022-12-04T09:09:13.964Z,515.5
2022-12-04T09:10:20.565Z,528.5
2022-12-04T09:11:26.859Z,517.5
2022-12-04T09:12:33.289Z,514.9
2022-12-04T09:13:39.817Z,517.1
2022-12-04T09:14:46.190Z,525
2022-12-04T09:15:52.644Z,515.5
2022-12-04T09:16:59.190Z,511.5
2022-12-04T09:18:05.488Z,516.4
2022-12-04T09:19:11.882Z,527.5
2022-12-04T09:20:18.314Z,518
2022-12-04T09:21:24.872Z,527
2022-12-04T09:22:31.059Z,524.8
2022-12-04T09:23:37.594Z,520.6
2022-12-04T09:24:44.175Z,518.4
2022-12-04T09:25:50.786Z,519.9
2022-12-04T09:26:57.307Z,524.4
2022-12-04T09:28:03.766Z,521.3
2022-12-04T09:29:10.268Z,515.5
2022-12-04T09:30:16.850Z,523.6
2022-12-04T09:31:23.356Z,514.5
2022-12-04T09:32:29.882Z,514.3
2022-12-04T09:33:36.273Z,516.1
2022-12-04T09:34:42.812Z,517.7
2022-12-04T09:35:49.199Z,521.4
2022-12-04T09:36:55.731Z,513.3
2022-12-04T09:38:45.097Z,515.8
2022-12-04T09:39:51.691Z,519.9
2022-12-04T09:40:58.561Z,522.5
2022-12-04T09:42:05.310Z,514.9
2022-12-04T09:43:11.973Z,515
2022-12-04T09:44:18.684Z,508.3
2022-12-04T09:45:25.529Z,520
2022-12-04T09:46:32.203Z,516.9
2022-12-04T09:47:38.892Z,509.5
2022-12-04T09:48:45.629Z,514.7
2022-12-04T09:49:52.303Z,514.5
2022-12-04T09:50:59.112Z,512.5
2022-12-04T09:52:05.771Z,515.1
2022-12-04T09:55:23.904Z,508.7
2022-12-04T09:57:02.659Z,519.6
2022-12-04T09:58:09.858Z,518.7
2022-12-04T09:59:17.108Z,520.4
2022-12-04T10:00:55.852Z,517.5
2022-12-04T10:02:34.561Z,514.7
2022-12-04T10:04:13.259Z,519
2022-12-04T10:05:52.156Z,514.9
2022-12-04T10:07:30.673Z,514.1
2022-12-04T10:09:09.391Z,508.2
2022-12-04T10:10:48.104Z,513.8
2022-12-04T10:12:26.818Z,511.8
2022-12-04T10:14:05.622Z,515.3
2022-12-04T10:15:45.232Z,516.3
2022-12-04T10:19:00.914Z,514.7
2022-12-04T10:20:07.149Z,504.7
2022-12-04T10:21:13.589Z,510
2022-12-04T10:22:19.931Z,515.6
2022-12-04T10:23:26.311Z,516.7
2022-12-04T10:24:32.649Z,511.9
2022-12-04T10:25:39.006Z,505.6
2022-12-04T10:26:45.423Z,519
2022-12-04T10:27:51.780Z,510.2
2022-12-04T10:28:58.158Z,511.1
2022-12-04T10:30:04.550Z,508.8
2022-12-04T10:31:10.964Z,511.7
2022-12-04T10:32:17.416Z,508.7
2022-12-04T10:33:23.681Z,518.4
2022-12-04T10:34:30.168Z,516.7
2022-12-04T10:35:36.400Z,508.7
2022-12-04T10:36:42.801Z,522.5
2022-12-04T10:37:49.217Z,510.1
2022-12-04T10:38:55.628Z,507
2022-12-04T10:40:01.960Z,514.8
2022-12-04T10:41:08.343Z,509
2022-12-04T10:42:14.690Z,508.9
2022-12-04T10:43:21.326Z,514.2
2022-12-04T10:44:27.485Z,509.8
2022-12-04T10:45:33.824Z,506.5
2022-12-04T10:46:40.318Z,510.2
2022-12-04T10:47:46.798Z,504.4
2022-12-04T10:48:53.283Z,511.4
2022-12-04T10:49:59.809Z,509.8
2022-12-04T10:51:06.273Z,508.5
2022-12-04T10:52:12.801Z,516.1
2022-12-04T10:53:19.345Z,521.4
2022-12-04T10:54:25.775Z,510.6
2022-12-04T10:55:32.253Z,508.6
2022-12-04T10:56:38.845Z,509.1
2022-12-04T10:57:45.286Z,507.8
2022-12-04T10:58:51.700Z,512.1
2022-12-04T10:59:58.266Z,508.4
2022-12-04T11:01:47.484Z,501.9
2022-12-04T11:02:54.242Z,513.1
2022-12-04T11:04:01.011Z,511.6
2022-12-04T11:05:07.801Z,517.5
2022-12-04T11:06:14.501Z,507.6
2022-12-04T11:07:21.223Z,516.7
2022-12-04T11:08:27.948Z,507.3
2022-12-04T11:09:34.649Z,522.7
2022-12-04T11:10:41.382Z,504.6
2022-12-04T11:11:48.139Z,501.7
2022-12-04T11:12:54.929Z,509.9
2022-12-04T11:14:01.627Z,509.3
2022-12-04T11:15:08.471Z,501.4
2022-12-04T11:18:26.614Z,506.2
2022-12-04T11:20:05.272Z,505.8
2022-12-04T11:21:12.548Z,510
2022-12-04T11:22:19.706Z,516.8
2022-12-04T11:23:58.436Z,506.5
2022-12-04T11:25:37.087Z,505
2022-12-04T11:27:15.760Z,512
2022-12-04T11:28:54.498Z,506.9
2022-12-04T11:30:33.284Z,514
2022-12-04T11:32:11.967Z,518.8
2022-12-04T11:33:50.610Z,509.4
2022-12-04T11:35:29.407Z,503.4
2022-12-04T11:37:08.016Z,507.5
2022-12-04T11:38:47.830Z,509.8
2022-12-04T11:42:03.395Z,504.6
2022-12-04T11:43:09.887Z,505.2
2022-12-04T11:44:16.350Z,504.1
2022-12-04T11:45:22.833Z,505.6
2022-12-04T11:46:29.350Z,508.1
2022-12-04T11:47:35.890Z,505.3
2022-12-04T11:48:42.315Z,508.3
2022-12-04T11:49:48.831Z,501.4
2022-12-04T11:50:55.268Z,510
2022-12-04T11:52:01.802Z,520.8
2022-12-04T11:53:08.336Z,511.3
2022-12-04T11:54:14.757Z,505
2022-12-04T11:55:21.330Z,508.4
2022-12-04T11:56:27.817Z,501.2
2022-12-04T11:57:34.292Z,506.8
2022-12-04T11:58:40.768Z,508.3
2022-12-04T11:59:47.312Z,509
2022-12-04T12:00:53.779Z,514.2
2022-12-04T12:02:00.330Z,513.3
2022-12-04T12:03:06.730Z,509.5
2022-12-04T12:04:13.287Z,513.1
2022-12-04T12:05:19.813Z,521.5
2022-12-04T12:06:26.353Z,509.9
2022-12-04T12:07:32.929Z,509.2
2022-12-04T12:08:39.566Z,513.9
2022-12-04T12:09:46.208Z,506.2
2022-12-04T12:10:52.961Z,503.8
2022-12-04T12:11:59.691Z,506.3
2022-12-04T12:13:06.386Z,513
2022-12-04T12:14:13.085Z,510.4
2022-12-04T12:15:19.815Z,513.7
2022-12-04T12:16:26.591Z,501.8
2022-12-04T12:17:33.265Z,514.6
2022-12-04T12:18:40.006Z,507.9
2022-12-04T12:19:46.607Z,502.6
2022-12-04T12:20:53.290Z,505.7
2022-12-04T12:22:00.023Z,505.6
2022-12-04T12:23:06.743Z,511.2
2022-12-04T12:25:46.756Z,515
2022-12-04T12:27:25.484Z,508.7
2022-12-04T12:29:04.165Z,509.3
2022-12-04T12:30:42.891Z,509.9
2022-12-04T12:31:50.251Z,506.3
2022-12-04T12:32:57.451Z,510.3
2022-12-04T12:34:36.104Z,508.8
2022-12-04T12:36:14.883Z,512.6
2022-12-04T12:37:53.501Z,504.7
2022-12-04T12:39:32.341Z,512.1
2022-12-04T12:41:10.978Z,506.4
2022-12-04T12:42:49.514Z,512.5
2022-12-04T12:44:28.294Z,506.6
2022-12-04T12:48:18.256Z,509.8
2022-12-04T12:49:24.728Z,511.8
2022-12-04T12:50:31.176Z,515.7
2022-12-04T12:51:37.857Z,511.5
2022-12-04T12:52:44.285Z,510.9
2022-12-04T12:53:50.828Z,503.1
2022-12-04T12:54:57.402Z,508.1
2022-12-04T12:56:03.799Z,513.9
2022-12-04T12:57:10.346Z,516.5
2022-12-04T12:58:16.681Z,508
2022-12-04T12:59:23.161Z,513.7
2022-12-04T13:00:29.770Z,511.4
2022-12-04T13:01:36.261Z,516.1
2022-12-04T13:02:42.794Z,509.3
2022-12-04T13:03:49.229Z,510.7
2022-12-04T13:04:55.777Z,513.3
2022-12-04T13:06:02.463Z,509.9
2022-12-04T13:07:08.901Z,519.3
2022-12-04T13:08:15.425Z,510.8
2022-12-04T13:09:21.975Z,514.1
2022-12-04T13:10:28.270Z,512.8
2022-12-04T13:11:35.060Z,510.7
2022-12-04T13:12:41.355Z,509.2
2022-12-04T13:13:48.091Z,508.5
2022-12-04T13:14:54.543Z,513.6
2022-12-04T13:16:01.095Z,515
2022-12-04T13:17:07.651Z,512.3
2022-12-04T13:18:14.384Z,514
2022-12-04T13:19:21.137Z,509.7
2022-12-04T13:20:27.917Z,514.9
2022-12-04T13:21:34.619Z,515.8
2022-12-04T13:22:41.464Z,514.3
2022-12-04T13:23:48.237Z,513.8
2022-12-04T13:24:55.077Z,513.7
2022-12-04T13:26:01.913Z,518.1
2022-12-04T13:27:08.618Z,512.4
2022-12-04T13:28:15.339Z,508.9
2022-12-04T13:29:22.271Z,510.7
2022-12-04T13:30:28.839Z,512.1
2022-12-04T13:33:08.833Z,510.2
2022-12-04T13:34:47.545Z,510.6
2022-12-04T13:36:26.276Z,512.7
2022-12-04T13:38:05.016Z,514.2
2022-12-04T13:39:12.231Z,512
2022-12-04T13:40:19.376Z,508.7
2022-12-04T13:41:58.144Z,510
2022-12-04T13:43:36.976Z,510.1
2022-12-04T13:45:15.615Z,511.3
2022-12-04T13:46:54.207Z,512.9
2022-12-04T13:48:33.122Z,509.2
2022-12-04T13:50:11.623Z,516.7
2022-12-04T13:51:50.497Z,516.8
2022-12-04T13:55:40.209Z,514.5
2022-12-04T13:56:46.600Z,513.1
2022-12-04T13:57:53.095Z,502.9
2022-12-04T13:58:59.494Z,510.2
2022-12-04T14:00:05.770Z,514.4
2022-12-04T14:01:12.331Z,514.7
2022-12-04T14:02:18.729Z,511.4
2022-12-04T14:03:25.028Z,516.6
2022-12-04T14:04:31.417Z,513.4
2022-12-04T14:05:37.907Z,511.1
2022-12-04T14:06:44.193Z,513.9
2022-12-04T14:07:50.711Z,511.7
2022-12-04T14:08:57.133Z,505.1
2022-12-04T14:11:09.746Z,508.2
2022-12-04T14:12:16.153Z,519.8
2022-12-04T14:13:22.568Z,507.8
2022-12-04T14:14:28.954Z,511.2
2022-12-04T14:15:35.381Z,517.1
2022-12-04T14:16:41.755Z,515
2022-12-04T14:17:48.148Z,509.7
2022-12-04T14:18:54.549Z,514
2022-12-04T14:20:00.952Z,507.9
2022-12-04T14:21:07.376Z,514.5
2022-12-04T14:22:13.761Z,512.7
2022-12-04T14:23:20.166Z,517.6
2022-12-04T14:24:26.685Z,511
2022-12-04T14:25:33.193Z,515.5
2022-12-04T14:26:39.729Z,513.3
2022-12-04T14:27:46.220Z,512.8
2022-12-04T14:28:52.701Z,507.1
2022-12-04T14:29:59.213Z,510.4
2022-12-04T14:31:05.716Z,521.8
2022-12-04T14:32:12.252Z,515
2022-12-04T14:33:18.761Z,518.7
2022-12-04T14:34:25.302Z,516.9
2022-12-04T14:35:31.733Z,524.8
2022-12-04T14:36:38.247Z,512.5
2022-12-04T14:37:44.753Z,520.4
2022-12-04T14:39:34.068Z,529.8
2022-12-04T14:40:40.838Z,514.3
2022-12-04T14:41:47.535Z,518
2022-12-04T14:42:54.263Z,513.8
2022-12-04T14:44:01.005Z,515.3
2022-12-04T14:45:07.757Z,515
2022-12-04T14:46:14.480Z,519.2
2022-12-04T14:47:21.238Z,513.7
2022-12-04T14:48:27.964Z,513.8
2022-12-04T14:49:34.726Z,516.4
2022-12-04T14:50:41.466Z,513.3
2022-12-04T14:51:48.192Z,516.6
2022-12-04T14:52:54.935Z,515.7
2022-12-04T14:56:13.140Z,517.6
2022-12-04T14:57:48.735Z,523.6
2022-12-04T14:58:54.692Z,520.4
2022-12-04T15:00:01.080Z,520.1
2022-12-04T15:01:07.463Z,523.5
2022-12-04T15:02:13.842Z,514.7
2022-12-04T15:03:20.227Z,516.1
2022-12-04T15:04:26.622Z,514.2
2022-12-04T15:05:33.026Z,517.3
2022-12-04T15:06:39.428Z,518.1
2022-12-04T15:07:45.762Z,522.6
2022-12-04T15:08:52.124Z,513.8
2022-12-04T15:09:58.503Z,518.9
2022-12-04T15:11:04.858Z,517.1
2022-12-04T15:12:11.281Z,516.2
2022-12-04T15:13:17.607Z,523.1
2022-12-04T15:14:23.992Z,520.3
2022-12-04T15:15:30.403Z,523.4
2022-12-04T15:16:36.718Z,517.4
2022-12-04T15:17:43.115Z,521.8
2022-12-04T15:18:49.499Z,525.2
2022-12-04T15:19:55.867Z,523.2
2022-12-04T15:21:02.256Z,526.6
2022-12-04T15:22:08.638Z,524.2
2022-12-04T15:23:15.021Z,525.6
2022-12-04T15:24:21.406Z,527.2
2022-12-04T15:25:27.790Z,513.8
2022-12-04T15:26:34.312Z,515.1
2022-12-04T15:27:40.821Z,520.9
2022-12-04T15:29:53.823Z,532.3
2022-12-04T15:31:00.330Z,515.1
2022-12-04T15:32:06.835Z,512.5
2022-12-04T15:33:13.329Z,511.3
2022-12-04T15:34:19.838Z,516.6
2022-12-04T15:35:26.332Z,528.7
2022-12-04T15:36:32.840Z,525.3
2022-12-04T15:37:39.453Z,520.4
2022-12-04T15:38:45.852Z,512.7
2022-12-04T15:39:52.370Z,515.7
2022-12-04T15:41:26.188Z,520.3
2022-12-04T15:42:32.972Z,521
2022-12-04T15:43:39.743Z,524.3
2022-12-04T15:44:46.578Z,525.4
2022-12-04T15:45:53.297Z,519.2
2022-12-04T15:47:00.100Z,520.1
2022-12-04T15:48:06.852Z,524.9